Time;durP1;ratioP1;P1;durP2;ratioP2;P2;SDS_P1;SDS_P2;PMS_P1;PMS_P2;Temp;Humidity;BMP_temperature;BMP_pressure;BME280_temperature;BME280_humidity;BME280_pressure;Samples;Min_cycle;Max_cycle;Signal;HPM_P1;HPM_P2
2021/06/14 00:00:37;;;;;;;14.40;13.67;;;15.40;99.90;;;;;;4982419;28;20455;-67
2021/06/14 00:03:04;;;;;;;15.30;14.23;;;15.40;99.90;;;;;;4982232;28;20853;-68
2021/06/14 00:05:34;;;;;;;14.80;13.93;;;15.40;99.90;;;;;;4982081;28;20447;-68
2021/06/14 00:08:01;;;;;;;15.10;14.30;;;15.30;99.90;;;;;;4981747;28;20463;-69
2021/06/14 00:10:30;;;;;;;14.70;13.90;;;15.30;99.90;;;;;;4981979;28;20451;-68
2021/06/14 00:12:58;;;;;;;14.97;13.93;;;15.20;99.90;;;;;;4981913;28;20458;-68
2021/06/14 00:15:25;;;;;;;15.40;14.50;;;15.10;99.90;;;;;;4981847;28;20465;-69
2021/06/14 00:17:52;;;;;;;14.83;13.93;;;15.10;99.90;;;;;;4981631;28;20505;-68
2021/06/14 00:20:20;;;;;;;15.80;14.90;;;15.00;99.90;;;;;;4981812;28;20459;-68
2021/06/14 00:22:47;;;;;;;15.87;14.57;;;15.00;99.90;;;;;;4981663;28;20454;-68
2021/06/14 00:25:16;;;;;;;15.60;14.80;;;14.90;99.90;;;;;;4981656;28;20474;-68
2021/06/14 00:27:43;;;;;;;15.40;14.50;;;14.80;99.90;;;;;;4981670;28;20458;-68
2021/06/14 00:30:13;;;;;;;16.33;15.27;;;14.80;99.90;;;;;;4981945;28;20462;-68
2021/06/14 00:32:39;;;;;;;16.60;15.17;;;14.80;99.90;;;;;;4981470;28;20451;-67
2021/06/14 00:35:07;;;;;;;15.70;14.63;;;14.70;99.90;;;;;;4981526;28;20967;-68
2021/06/14 00:37:34;;;;;;;15.70;14.80;;;14.70;99.90;;;;;;4981085;28;21067;-68
2021/06/14 00:40:01;;;;;;;16.07;15.10;;;14.60;99.90;;;;;;4981435;28;20447;-68
2021/06/14 00:42:28;;;;;;;16.10;14.90;;;14.60;99.90;;;;;;4981327;28;20453;-68
2021/06/14 00:44:54;;;;;;;14.83;13.83;;;14.60;99.90;;;;;;4981435;28;20653;-70
2021/06/14 00:47:22;;;;;;;15.50;14.70;;;14.50;99.90;;;;;;4980878;28;20505;-68
2021/06/14 00:49:49;;;;;;;15.63;14.73;;;14.50;99.90;;;;;;4981269;28;20451;-67
2021/06/14 00:52:16;;;;;;;15.00;14.13;;;14.50;99.90;;;;;;4981279;28;20837;-68
2021/06/14 00:54:43;;;;;;;16.20;15.17;;;14.40;99.90;;;;;;4981194;28;20461;-69
2021/06/14 00:57:09;;;;;;;18.00;16.40;;;14.40;99.90;;;;;;4980948;28;20478;-67
2021/06/14 00:59:37;;;;;;;15.10;14.20;;;14.30;99.90;;;;;;4980951;28;20832;-68
2021/06/14 01:02:04;;;;;;;16.00;15.10;;;14.20;99.90;;;;;;4979914;28;20497;-68
2021/06/14 01:04:32;;;;;;;16.83;15.60;;;14.20;99.90;;;;;;4981100;28;20443;-68
2021/06/14 01:06:58;;;;;;;15.47;14.43;;;14.20;99.90;;;;;;4980713;28;20471;-67
2021/06/14 01:09:25;;;;;;;16.30;15.30;;;14.10;99.90;;;;;;4980794;28;20454;-68
2021/06/14 01:11:58;;;;;;;15.07;14.17;;;14.10;99.90;;;;;;4980953;28;20912;-68
2021/06/14 01:14:33;;;;;;;16.40;14.93;;;14.10;99.90;;;;;;4981109;28;20955;-68
2021/06/14 01:17:05;;;;;;;15.67;14.67;;;14.00;99.90;;;;;;4980537;28;20493;-69
2021/06/14 01:19:54;;;;;;;15.70;14.80;;;14.00;99.90;;;;;;4980962;28;20490;-68
2021/06/14 01:22:54;;;;;;;16.30;15.43;;;14.00;99.90;;;;;;4980534;28;20455;-68
2021/06/14 01:25:25;;;;;;;16.17;14.93;;;13.90;99.90;;;;;;4980746;28;20457;-69
2021/06/14 01:27:56;;;;;;;16.27;15.17;;;13.90;99.90;;;;;;4980462;28;20936;-68
2021/06/14 01:30:25;;;;;;;14.33;13.53;;;13.80;99.90;;;;;;4980659;28;20458;-68
2021/06/14 01:32:53;;;;;;;16.47;15.23;;;13.80;99.90;;;;;;4980810;28;20786;-68
2021/06/14 01:35:23;;;;;;;17.03;15.63;;;13.80;99.90;;;;;;4980937;28;20458;-68
2021/06/14 01:37:54;;;;;;;16.20;14.70;;;13.80;99.90;;;;;;4980261;28;20491;-68
2021/06/14 01:40:23;;;;;;;15.67;14.60;;;13.80;99.90;;;;;;4980571;28;20457;-68
2021/06/14 01:42:55;;;;;;;14.17;13.30;;;13.80;99.90;;;;;;4980624;28;20454;-68
2021/06/14 01:45:24;;;;;;;15.13;14.13;;;13.80;99.90;;;;;;4980341;28;20450;-68
2021/06/14 01:47:52;;;;;;;16.00;14.70;;;13.80;99.90;;;;;;4980216;28;20978;-69
2021/06/14 01:50:20;;;;;;;15.37;14.17;;;13.80;99.90;;;;;;4980358;28;20453;-68
2021/06/14 01:52:47;;;;;;;15.57;14.37;;;13.80;99.90;;;;;;4980139;28;20446;-68
2021/06/14 01:55:16;;;;;;;14.50;13.20;;;13.80;99.90;;;;;;4980323;28;20470;-67
2021/06/14 01:57:44;;;;;;;15.63;14.47;;;13.80;99.90;;;;;;4979809;28;20471;-67
2021/06/14 02:00:13;;;;;;;14.13;13.13;;;13.80;99.90;;;;;;4980272;28;20450;-68
2021/06/14 02:02:43;;;;;;;16.30;15.10;;;13.80;99.90;;;;;;4980161;28;20450;-70
2021/06/14 02:05:11;;;;;;;15.40;14.37;;;13.70;99.90;;;;;;4980266;28;20844;-68
2021/06/14 02:07:41;;;;;;;15.00;14.10;;;13.70;99.90;;;;;;4979997;28;20480;-67
2021/06/14 02:10:09;;;;;;;15.23;14.33;;;13.80;99.90;;;;;;4980100;28;20454;-68
2021/06/14 02:12:40;;;;;;;14.37;13.73;;;13.80;99.90;;;;;;4980385;28;20446;-67
2021/06/14 02:15:08;;;;;;;14.97;13.97;;;13.80;99.90;;;;;;4984256;28;20475;-68
2021/06/14 02:17:37;;;;;;;14.90;14.10;;;13.80;99.90;;;;;;4983660;28;20818;-68
2021/06/14 02:20:06;;;;;;;14.77;13.97;;;13.70;99.90;;;;;;4983964;28;20486;-69
2021/06/14 02:22:33;;;;;;;15.37;14.47;;;13.70;99.90;;;;;;4983775;28;20450;-68
2021/06/14 02:24:59;;;;;;;16.87;15.67;;;13.70;99.90;;;;;;4983949;28;20493;-68
2021/06/14 02:27:26;;;;;;;15.10;14.30;;;13.60;99.90;;;;;;4983584;28;20923;-68
2021/06/14 02:29:53;;;;;;;15.10;14.10;;;13.60;99.90;;;;;;4983912;28;20501;-67
2021/06/14 02:32:20;;;;;;;15.00;14.00;;;13.50;99.90;;;;;;4983580;28;20461;-68
2021/06/14 02:34:49;;;;;;;15.77;14.83;;;13.50;99.90;;;;;;4983750;28;20446;-68
2021/06/14 02:37:17;;;;;;;15.80;14.63;;;13.50;99.90;;;;;;4983374;28;20978;-67
2021/06/14 02:39:46;;;;;;;15.17;14.10;;;13.60;99.90;;;;;;4983821;28;20482;-68
2021/06/14 02:42:13;;;;;;;15.17;13.97;;;13.60;99.90;;;;;;4983692;28;20983;-69
2021/06/14 02:44:41;;;;;;;15.03;14.23;;;13.60;99.90;;;;;;4983624;28;20461;-67
2021/06/14 02:47:11;;;;;;;16.63;15.50;;;13.60;99.90;;;;;;4983474;28;20470;-67
2021/06/14 02:49:38;;;;;;;15.40;14.20;;;13.60;99.90;;;;;;4983396;28;21110;-67
2021/06/14 02:52:10;;;;;;;15.03;14.00;;;13.60;99.90;;;;;;4983470;28;20450;-68
2021/06/14 02:54:38;;;;;;;16.20;15.40;;;13.60;99.90;;;;;;4983447;28;20446;-68
2021/06/14 02:57:10;;;;;;;16.60;15.63;;;13.60;99.90;;;;;;4983292;28;20470;-68
2021/06/14 02:59:38;;;;;;;16.73;15.63;;;13.70;99.90;;;;;;4983259;28;20493;-67
2021/06/14 03:02:05;;;;;;;16.13;15.10;;;13.70;99.90;;;;;;4983208;28;20773;-67
2021/06/14 03:04:34;;;;;;;17.10;15.60;;;13.70;99.90;;;;;;4983049;28;21262;-69
2021/06/14 03:07:00;;;;;;;16.53;15.37;;;13.70;99.90;;;;;;4983062;28;21301;-68
2021/06/14 03:09:29;;;;;;;16.87;15.70;;;13.80;99.90;;;;;;4983188;28;20916;-67
2021/06/14 03:11:57;;;;;;;16.60;15.60;;;13.80;99.90;;;;;;4983023;28;20455;-68
2021/06/14 03:14:25;;;;;;;16.50;15.77;;;13.70;99.90;;;;;;4982932;28;20797;-67
2021/06/14 03:16:53;;;;;;;16.60;15.60;;;13.70;99.90;;;;;;4982744;28;20486;-67
2021/06/14 03:19:22;;;;;;;17.30;15.87;;;13.70;99.90;;;;;;4982906;28;20486;-68
2021/06/14 03:21:49;;;;;;;16.77;15.87;;;13.60;99.90;;;;;;4982834;28;20814;-68
2021/06/14 03:24:16;;;;;;;17.57;15.80;;;13.60;99.90;;;;;;4982063;28;20462;-68
2021/06/14 03:26:46;;;;;;;17.33;16.33;;;13.70;99.90;;;;;;4982698;28;20482;-69
2021/06/14 03:29:17;;;;;;;16.53;15.67;;;13.60;99.90;;;;;;4982949;28;20447;-68
2021/06/14 03:31:45;;;;;;;15.57;14.77;;;13.60;99.90;;;;;;4982750;28;20451;-68
2021/06/14 03:34:13;;;;;;;18.67;17.10;;;13.70;99.90;;;;;;4982747;28;20459;-67
2021/06/14 03:36:41;;;;;;;16.03;15.20;;;13.70;99.90;;;;;;4982812;28;20991;-68
2021/06/14 03:39:09;;;;;;;16.50;15.60;;;13.80;99.90;;;;;;4982412;28;20490;-67
2021/06/14 03:41:41;;;;;;;16.50;15.57;;;13.80;99.90;;;;;;4982700;28;20474;-69
2021/06/14 03:44:09;;;;;;;16.23;15.30;;;13.90;99.90;;;;;;4982552;28;20451;-69
2021/06/14 03:46:36;;;;;;;15.73;14.93;;;14.00;99.90;;;;;;4982282;28;20471;-68
2021/06/14 03:49:04;;;;;;;16.00;15.20;;;14.10;99.90;;;;;;4982469;28;20815;-68
2021/06/14 03:51:31;;;;;;;16.47;15.37;;;14.10;99.90;;;;;;4982361;28;20485;-68
2021/06/14 03:53:59;;;;;;;16.70;15.70;;;14.20;99.90;;;;;;4982137;28;20458;-68
2021/06/14 03:56:27;;;;;;;15.83;15.00;;;14.20;99.90;;;;;;4982039;28;20529;-67
2021/06/14 03:58:54;;;;;;;15.77;15.00;;;14.30;99.90;;;;;;4982007;28;20517;-67
2021/06/14 04:01:23;;;;;;;15.73;14.93;;;14.40;99.90;;;;;;4982042;28;20443;-68
2021/06/14 04:04:02;;;;;;;15.80;15.10;;;14.50;99.90;;;;;;4982359;28;20451;-68
2021/06/14 04:06:29;;;;;;;16.20;15.43;;;14.50;99.90;;;;;;4981952;28;20581;-67
2021/06/14 04:08:56;;;;;;;15.63;14.93;;;14.60;99.90;;;;;;4981832;28;21015;-68
2021/06/14 04:11:24;;;;;;;15.70;14.90;;;14.70;99.90;;;;;;4981927;28;20870;-68
2021/06/14 04:13:50;;;;;;;15.93;14.93;;;14.70;99.90;;;;;;4981802;28;20459;-67
2021/06/14 04:16:17;;;;;;;17.00;16.03;;;14.80;99.90;;;;;;4981702;28;21015;-69
2021/06/14 04:18:45;;;;;;;17.57;16.40;;;14.80;99.90;;;;;;4981589;28;20494;-67
2021/06/14 04:21:12;;;;;;;17.13;16.20;;;14.80;99.90;;;;;;4981771;28;20457;-68
2021/06/14 04:23:39;;;;;;;17.23;16.23;;;14.80;99.90;;;;;;4981734;28;20459;-68
2021/06/14 04:26:07;;;;;;;17.10;16.03;;;14.90;99.90;;;;;;4981632;28;20474;-68
2021/06/14 04:28:34;;;;;;;17.20;16.40;;;15.00;99.90;;;;;;4981404;28;20461;-68
2021/06/14 04:31:00;;;;;;;16.80;15.90;;;15.00;99.90;;;;;;4981492;28;20451;-68
2021/06/14 04:33:27;;;;;;;16.73;15.83;;;15.00;99.90;;;;;;4981462;28;20450;-68
2021/06/14 04:35:55;;;;;;;15.60;14.80;;;15.10;99.90;;;;;;4981285;28;20470;-68
2021/06/14 04:38:22;;;;;;;17.53;16.27;;;15.20;99.90;;;;;;4981351;28;20530;-67
2021/06/14 04:40:48;;;;;;;16.70;15.90;;;15.30;99.90;;;;;;4981235;28;20992;-68
2021/06/14 04:43:15;;;;;;;18.27;16.67;;;15.40;99.90;;;;;;4979947;28;20443;-67
2021/06/14 04:45:42;;;;;;;20.00;18.73;;;15.50;99.90;;;;;;4981273;28;20461;-68
2021/06/14 04:48:09;;;;;;;17.90;16.73;;;15.60;99.90;;;;;;4981590;28;20450;-68
2021/06/14 04:50:35;;;;;;;18.17;17.00;;;15.70;99.90;;;;;;4981138;28;20454;-68
2021/06/14 04:53:04;;;;;;;17.50;16.40;;;15.70;99.90;;;;;;4981240;28;20786;-68
2021/06/14 04:55:31;;;;;;;17.50;16.13;;;15.80;99.90;;;;;;4981046;28;20809;-68
2021/06/14 04:57:57;;;;;;;15.87;15.17;;;15.90;99.90;;;;;;4980760;28;20459;-67
2021/06/14 05:00:25;;;;;;;16.47;15.63;;;16.00;99.90;;;;;;4980862;28;20486;-67
2021/06/14 05:02:51;;;;;;;18.23;17.03;;;16.10;99.90;;;;;;4980844;28;20550;-68
2021/06/14 05:05:18;;;;;;;17.30;16.20;;;16.20;99.90;;;;;;4981163;28;21050;-69
2021/06/14 05:07:45;;;;;;;17.50;16.60;;;16.20;99.90;;;;;;4980816;28;20463;-68
2021/06/14 05:10:13;;;;;;;16.67;15.63;;;16.30;99.90;;;;;;4980840;28;20812;-69
2021/06/14 05:12:39;;;;;;;17.00;16.20;;;16.30;99.90;;;;;;4980743;28;21250;-69
2021/06/14 05:15:07;;;;;;;17.03;16.23;;;16.50;99.90;;;;;;4980954;28;20451;-68
2021/06/14 05:17:34;;;;;;;18.57;17.57;;;16.60;99.90;;;;;;4981334;28;20478;-69
2021/06/14 05:20:00;;;;;;;17.40;16.40;;;16.60;99.90;;;;;;4980602;28;20489;-67
2021/06/14 05:22:27;;;;;;;17.50;16.37;;;16.70;99.90;;;;;;4980549;28;20457;-68
2021/06/14 05:24:54;;;;;;;17.90;16.77;;;16.70;99.90;;;;;;4980907;28;20469;-67
2021/06/14 05:27:22;;;;;;;17.57;16.43;;;16.80;99.90;;;;;;4980428;28;20825;-67
2021/06/14 05:29:48;;;;;;;17.73;16.63;;;16.90;99.90;;;;;;4980479;28;20904;-67
2021/06/14 05:32:15;;;;;;;17.77;16.77;;;17.00;99.90;;;;;;4980220;28;20458;-67
2021/06/14 05:34:42;;;;;;;19.13;17.70;;;17.10;99.90;;;;;;4980475;28;20447;-68
2021/06/14 05:37:09;;;;;;;17.87;16.90;;;17.20;99.90;;;;;;4980384;28;20459;-68
2021/06/14 05:39:35;;;;;;;19.90;17.93;;;17.20;99.80;;;;;;4980195;28;20944;-68
2021/06/14 05:42:02;;;;;;;17.23;16.43;;;17.30;99.70;;;;;;4980231;28;21461;-68
2021/06/14 05:44:30;;;;;;;18.13;17.03;;;17.40;99.40;;;;;;4980557;28;20458;-69
2021/06/14 05:46:57;;;;;;;17.50;16.53;;;17.50;99.00;;;;;;4980287;28;20473;-69
2021/06/14 05:49:24;;;;;;;16.43;15.70;;;17.60;99.00;;;;;;4979647;28;20449;-67
2021/06/14 05:51:50;;;;;;;17.67;16.70;;;17.70;98.90;;;;;;4980352;28;20874;-68
2021/06/14 05:54:17;;;;;;;17.80;16.80;;;17.80;98.70;;;;;;4980265;28;20451;-67
2021/06/14 05:56:44;;;;;;;18.27;17.33;;;17.90;98.40;;;;;;4980139;28;20474;-69
2021/06/14 05:59:10;;;;;;;17.20;16.20;;;17.90;98.20;;;;;;4979957;28;20795;-68
2021/06/14 06:01:39;;;;;;;17.20;16.13;;;18.10;97.80;;;;;;4980085;28;20446;-67
2021/06/14 06:04:05;;;;;;;16.43;15.43;;;18.10;97.70;;;;;;4980056;28;20461;-67
2021/06/14 06:06:32;;;;;;;17.87;16.77;;;18.20;97.50;;;;;;4979903;28;20471;-68
2021/06/14 06:08:59;;;;;;;17.67;16.67;;;18.30;97.40;;;;;;4979866;28;20924;-68
2021/06/14 06:11:26;;;;;;;17.30;16.60;;;18.40;97.10;;;;;;4980142;28;20450;-68
2021/06/14 06:13:52;;;;;;;16.80;16.00;;;18.50;96.70;;;;;;4980076;28;20457;-68
2021/06/14 06:16:19;;;;;;;17.27;16.37;;;18.50;96.20;;;;;;4979855;28;20490;-68
2021/06/14 06:18:47;;;;;;;17.50;16.60;;;18.60;96.40;;;;;;4979983;28;20458;-68
2021/06/14 06:21:14;;;;;;;19.30;18.07;;;18.70;96.30;;;;;;4979995;28;20482;-68
2021/06/14 06:23:40;;;;;;;18.23;17.17;;;18.90;96.70;;;;;;4979989;28;20975;-69
2021/06/14 06:26:07;;;;;;;17.30;16.10;;;19.00;96.00;;;;;;4979894;28;21319;-68
2021/06/14 06:28:34;;;;;;;17.63;16.40;;;19.10;96.10;;;;;;4979641;28;20446;-67
2021/06/14 06:31:01;;;;;;;16.73;15.93;;;19.20;95.80;;;;;;4979759;28;20929;-70
2021/06/14 06:33:28;;;;;;;17.30;16.50;;;19.30;94.50;;;;;;4979818;28;20447;-69
2021/06/14 06:35:56;;;;;;;16.83;15.83;;;19.30;94.30;;;;;;4971668;28;20932;-68
2021/06/14 06:38:22;;;;;;;16.90;15.90;;;19.40;93.60;;;;;;4964695;28;20454;-68
2021/06/14 06:40:49;;;;;;;17.50;16.20;;;19.40;93.50;;;;;;4979476;28;20503;-68
2021/06/14 06:43:16;;;;;;;17.70;16.37;;;19.50;93.00;;;;;;4979424;28;20447;-68
2021/06/14 06:45:43;;;;;;;15.73;14.93;;;19.60;92.80;;;;;;4976164;28;20913;-67
2021/06/14 06:48:10;;;;;;;16.53;15.70;;;19.70;91.60;;;;;;4979667;28;20752;-67
2021/06/14 06:50:37;;;;;;;17.20;16.20;;;19.80;91.70;;;;;;4979519;28;20790;-68
2021/06/14 06:53:05;;;;;;;16.60;15.70;;;19.90;90.60;;;;;;4979683;28;21112;-67
2021/06/14 06:55:32;;;;;;;16.07;15.30;;;19.90;89.40;;;;;;4965685;28;20455;-68
2021/06/14 06:57:58;;;;;;;15.80;15.20;;;20.00;89.40;;;;;;4976200;28;21016;-67
2021/06/14 07:00:25;;;;;;;17.23;16.33;;;20.10;88.50;;;;;;4981247;28;20514;-68
2021/06/14 07:02:52;;;;;;;16.33;15.33;;;20.20;87.40;;;;;;4967683;28;20458;-68
2021/06/14 07:05:19;;;;;;;16.93;15.83;;;20.30;87.30;;;;;;4963772;28;20457;-68
2021/06/14 07:07:46;;;;;;;16.97;16.03;;;20.40;86.40;;;;;;4963483;28;20467;-67
2021/06/14 07:10:14;;;;;;;15.97;15.30;;;20.50;87.10;;;;;;4963654;28;20448;-68
2021/06/14 07:12:42;;;;;;;17.87;16.70;;;20.60;85.50;;;;;;4978279;28;20454;-67
2021/06/14 07:15:11;;;;;;;17.13;16.43;;;20.60;83.10;;;;;;4983644;28;20482;-67
2021/06/14 07:17:42;;;;;;;17.20;16.20;;;20.60;82.30;;;;;;4983150;28;20926;-67
2021/06/14 07:20:10;;;;;;;17.43;16.20;;;20.70;82.50;;;;;;4990938;28;20991;-67
2021/06/14 07:22:37;;;;;;;17.80;16.80;;;20.90;82.50;;;;;;4980812;28;20452;-66
2021/06/14 07:25:05;;;;;;;16.53;15.63;;;20.90;82.10;;;;;;4976393;28;20454;-67
2021/06/14 07:27:33;;;;;;;17.10;16.30;;;21.10;81.30;;;;;;4975027;28;20467;-67
2021/06/14 07:30:00;;;;;;;17.50;16.60;;;21.10;79.60;;;;;;4974877;28;20925;-67
2021/06/14 07:32:27;;;;;;;16.97;16.10;;;21.20;79.30;;;;;;4974967;28;20452;-66
2021/06/14 07:34:53;;;;;;;17.50;16.50;;;21.30;79.40;;;;;;4975152;28;20933;-66
2021/06/14 07:37:20;;;;;;;18.03;17.13;;;21.40;77.70;;;;;;4994272;28;20497;-67
2021/06/14 07:39:47;;;;;;;18.20;17.20;;;21.50;77.10;;;;;;4994050;28;20482;-67
2021/06/14 07:42:16;;;;;;;17.57;16.67;;;21.60;75.60;;;;;;4994508;28;20454;-68
2021/06/14 07:44:45;;;;;;;17.80;17.00;;;21.70;76.20;;;;;;4982343;28;20479;-66
2021/06/14 07:47:12;;;;;;;17.70;16.90;;;21.70;74.50;;;;;;4974813;28;20468;-66
2021/06/14 07:49:41;;;;;;;18.00;17.13;;;21.80;73.70;;;;;;4974803;28;20495;-67
2021/06/14 07:52:08;;;;;;;17.50;16.80;;;21.90;74.10;;;;;;4988899;28;20447;-66
2021/06/14 07:54:35;;;;;;;18.53;17.50;;;22.00;72.90;;;;;;4994144;28;20450;-67
2021/06/14 07:57:01;;;;;;;18.70;17.60;;;22.10;72.90;;;;;;4994066;28;20482;-67
2021/06/14 07:59:28;;;;;;;19.10;18.00;;;22.20;70.70;;;;;;4993804;28;20442;-67
2021/06/14 08:01:57;;;;;;;18.33;17.20;;;22.20;69.80;;;;;;4981009;28;20480;-67
2021/06/14 08:04:23;;;;;;;17.90;17.07;;;22.30;69.70;;;;;;4974460;28;20545;-67
2021/06/14 08:06:50;;;;;;;17.93;17.03;;;22.40;69.80;;;;;;4974343;28;20472;-66
2021/06/14 08:09:21;;;;;;;18.50;17.40;;;22.50;69.30;;;;;;4974258;28;20838;-67
2021/06/14 08:11:48;;;;;;;17.77;16.87;;;22.70;69.60;;;;;;4987383;28;20865;-67
2021/06/14 08:14:14;;;;;;;18.93;17.70;;;22.80;68.70;;;;;;4993776;28;20446;-66
2021/06/14 08:16:43;;;;;;;19.13;18.13;;;22.90;67.90;;;;;;4993537;28;20478;-67
2021/06/14 08:19:13;;;;;;;18.07;17.20;;;22.90;68.10;;;;;;4987578;28;20452;-68
2021/06/14 08:21:55;;;;;;;18.57;17.57;;;23.10;67.10;;;;;;4975384;28;20529;-67
2021/06/14 08:27:07;;;;;;;17.77;17.07;;;23.20;64.90;;;;;;4993449;28;20446;-67
2021/06/14 08:29:34;;;;;;;18.30;17.30;;;23.30;64.90;;;;;;4984483;28;20455;-66
2021/06/14 08:32:00;;;;;;;18.60;17.60;;;23.40;63.00;;;;;;4973824;28;20929;-67
2021/06/14 08:34:28;;;;;;;18.93;18.03;;;23.50;62.80;;;;;;4973970;28;20452;-67
2021/06/14 08:36:55;;;;;;;18.00;17.20;;;23.60;62.40;;;;;;4973757;28;20482;-66
2021/06/14 08:39:22;;;;;;;17.93;17.07;;;23.60;59.70;;;;;;4980215;28;20443;-68
2021/06/14 08:41:48;;;;;;;17.77;16.87;;;23.70;61.30;;;;;;4992815;28;20479;-66
2021/06/14 08:44:16;;;;;;;18.63;17.37;;;23.80;61.50;;;;;;4993193;28;20446;-67
2021/06/14 08:46:42;;;;;;;18.40;17.40;;;23.90;59.20;;;;;;4992859;28;20474;-67
2021/06/14 08:49:10;;;;;;;20.10;19.10;;;23.90;58.20;;;;;;4987518;28;20448;-66
2021/06/14 08:51:38;;;;;;;18.73;17.83;;;24.00;58.40;;;;;;4973500;28;20448;-67
2021/06/14 08:54:07;;;;;;;19.13;18.20;;;24.10;57.60;;;;;;4973557;28;20444;-67
2021/06/14 08:56:34;;;;;;;20.13;18.83;;;24.20;57.60;;;;;;4973425;28;20526;-67
2021/06/14 08:59:01;;;;;;;19.70;18.40;;;24.30;57.50;;;;;;4976605;28;20458;-66
2021/06/14 09:01:28;;;;;;;18.07;17.27;;;24.30;56.80;;;;;;4997380;28;20479;-67
2021/06/14 09:03:54;;;;;;;18.67;17.67;;;24.50;57.00;;;;;;4992703;28;20478;-67
2021/06/14 09:06:22;;;;;;;18.33;17.40;;;24.50;56.20;;;;;;4992461;28;20467;-67
2021/06/14 09:09:05;;;;;;;18.67;17.90;;;24.60;56.80;;;;;;4990719;28;20446;-67
2021/06/14 09:11:33;;;;;;;19.07;17.87;;;24.70;56.60;;;;;;4973262;28;20443;-67
2021/06/14 09:14:01;;;;;;;18.93;18.13;;;24.70;56.20;;;;;;4973224;28;20544;-67
2021/06/14 09:16:31;;;;;;;19.13;18.13;;;24.70;56.50;;;;;;4972923;28;20521;-67
2021/06/14 09:18:58;;;;;;;19.37;18.37;;;24.90;56.00;;;;;;4975462;28;20459;-67
2021/06/14 09:21:27;;;;;;;20.77;19.27;;;24.90;55.50;;;;;;4992500;28;20483;-67
2021/06/14 09:23:57;;;;;;;19.30;18.40;;;25.00;55.40;;;;;;4991669;28;20543;-68
2021/06/14 09:26:28;;;;;;;19.93;18.83;;;25.00;56.00;;;;;;4992397;28;20492;-67
2021/06/14 09:28:58;;;;;;;19.63;18.53;;;25.10;54.80;;;;;;4989837;28;20542;-67
2021/06/14 09:31:29;;;;;;;19.60;18.70;;;25.20;54.60;;;;;;4972893;28;20475;-67
2021/06/14 09:33:56;;;;;;;19.93;18.80;;;25.30;54.80;;;;;;4972937;28;20459;-67
2021/06/14 09:36:23;;;;;;;19.33;18.30;;;25.30;53.90;;;;;;4973513;28;20475;-67
2021/06/14 09:38:50;;;;;;;18.63;17.60;;;25.40;53.50;;;;;;4973730;28;20444;-67
2021/06/14 09:41:19;;;;;;;18.83;18.03;;;25.30;53.40;;;;;;4991957;28;20482;-66
2021/06/14 09:43:48;;;;;;;19.67;18.60;;;25.50;54.10;;;;;;4992162;28;20447;-67
2021/06/14 09:46:28;;;;;;;19.43;18.57;;;25.70;53.20;;;;;;4992070;28;20972;-67
2021/06/14 09:48:55;;;;;;;20.37;19.07;;;25.70;50.20;;;;;;4976692;28;20949;-67
2021/06/14 09:51:22;;;;;;;22.00;20.40;;;25.80;50.50;;;;;;4972778;28;20447;-67
2021/06/14 09:53:51;;;;;;;19.23;18.33;;;25.90;50.40;;;;;;4972698;28;20806;-68
2021/06/14 09:56:20;;;;;;;19.80;19.00;;;25.90;49.70;;;;;;4972541;28;20518;-66
2021/06/14 09:58:49;;;;;;;20.17;19.07;;;26.00;49.50;;;;;;4985886;28;20477;-67
2021/06/14 10:01:23;;;;;;;18.97;18.00;;;26.00;50.70;;;;;;4991872;28;20495;-66
2021/06/14 10:03:50;;;;;;;19.57;18.67;;;26.20;49.80;;;;;;4992139;28;20446;-67
2021/06/14 10:06:29;;;;;;;19.73;18.43;;;26.10;48.70;;;;;;4991996;28;20489;-67
2021/06/14 10:08:56;;;;;;;19.87;18.97;;;26.20;47.70;;;;;;4976923;28;20452;-66
2021/06/14 10:11:23;;;;;;;19.53;18.53;;;26.30;47.40;;;;;;4972459;28;20471;-67
2021/06/14 10:13:51;;;;;;;19.13;18.23;;;26.30;48.20;;;;;;4972492;28;20447;-67
2021/06/14 10:16:25;;;;;;;20.13;18.30;;;26.40;47.40;;;;;;4972303;28;20487;-66
2021/06/14 10:18:56;;;;;;;19.27;18.33;;;26.50;46.10;;;;;;4985972;28;20815;-67
2021/06/14 10:21:27;;;;;;;19.03;18.10;;;26.60;47.40;;;;;;4991719;28;20486;-67
2021/06/14 10:23:55;;;;;;;19.50;18.50;;;26.70;47.20;;;;;;4991989;28;20859;-66
2021/06/14 10:26:22;;;;;;;19.00;18.10;;;26.90;46.70;;;;;;4991726;28;20462;-67
2021/06/14 10:28:52;;;;;;;19.10;18.10;;;26.90;46.50;;;;;;4977977;28;20448;-67
2021/06/14 10:31:20;;;;;;;20.73;19.23;;;27.00;46.00;;;;;;4972416;28;20436;-67
2021/06/14 10:33:49;;;;;;;19.50;18.60;;;27.20;45.30;;;;;;4972969;28;20902;-67
2021/06/14 10:36:17;;;;;;;18.70;17.80;;;27.30;45.50;;;;;;4975998;28;20780;-67
2021/06/14 10:38:45;;;;;;;19.17;18.40;;;27.50;44.80;;;;;;4988019;28;20826;-67
2021/06/14 10:41:13;;;;;;;19.20;18.30;;;27.70;45.10;;;;;;4995401;28;20482;-67
2021/06/14 10:43:40;;;;;;;20.13;19.00;;;27.90;44.30;;;;;;4995425;28;20932;-67
2021/06/14 10:46:11;;;;;;;19.43;18.47;;;28.10;44.60;;;;;;4995401;28;20462;-67
2021/06/14 10:48:39;;;;;;;19.47;18.70;;;28.40;43.70;;;;;;4983507;28;20813;-67
2021/06/14 10:51:13;;;;;;;18.53;17.80;;;28.60;42.90;;;;;;4980045;28;20438;-68
2021/06/14 10:53:40;;;;;;;19.03;18.10;;;28.90;43.40;;;;;;4995201;28;20453;-67
2021/06/14 10:56:07;;;;;;;19.80;18.80;;;29.10;40.60;;;;;;4995028;28;20483;-67
2021/06/14 10:58:34;;;;;;;20.63;19.60;;;29.20;40.60;;;;;;4984210;28;20451;-67
2021/06/14 11:01:03;;;;;;;19.70;18.77;;;29.40;40.10;;;;;;4975562;28;20480;-67
2021/06/14 11:03:43;;;;;;;19.30;18.43;;;29.30;39.90;;;;;;4975405;28;20448;-67
2021/06/14 11:06:24;;;;;;;19.00;18.20;;;29.40;39.20;;;;;;4975484;28;20467;-66
2021/06/14 11:08:59;;;;;;;18.43;17.53;;;29.40;38.90;;;;;;4987661;28;20451;-67
2021/06/14 11:11:26;;;;;;;20.17;19.17;;;29.50;39.30;;;;;;4994947;28;20446;-67
2021/06/14 11:13:53;;;;;;;20.53;19.47;;;29.50;39.10;;;;;;4994930;28;20921;-67
2021/06/14 11:16:22;;;;;;;20.33;19.33;;;29.70;40.40;;;;;;5016153;23;20475;-68
2021/06/14 11:19:02;;;;;;;21.80;20.90;;;30.00;38.60;;;;;;4974420;28;20482;-67
2021/06/14 11:21:28;;;;;;;20.80;19.80;;;30.40;39.10;;;;;;4974741;28;21082;-68
2021/06/14 11:24:05;;;;;;;22.40;21.30;;;31.10;37.70;;;;;;4974980;28;20451;-68
2021/06/14 11:26:32;;;;;;;20.53;19.50;;;31.70;37.40;;;;;;4974240;28;20985;-68
2021/06/14 11:29:11;;;;;;;21.97;20.70;;;32.40;36.60;;;;;;4974630;28;20447;-67
2021/06/14 11:31:37;;;;;;;22.00;20.80;;;32.90;36.00;;;;;;4974808;28;20874;-68
2021/06/14 11:34:17;;;;;;;22.48;21.23;;;33.60;35.10;;;;;;4974636;28;20215;-69
2021/06/14 11:36:55;;;;;;;21.45;20.42;;;35.10;34.00;;;;;;4968012;28;20231;-67
2021/06/14 11:39:23;;;;;;;20.90;19.80;;;36.70;32.20;;;;;;4955047;28;20196;-68
2021/06/14 11:41:52;;;;;;;21.48;20.58;;;39.00;30.10;;;;;;4954997;28;20229;-68
2021/06/14 11:44:21;;;;;;;21.27;20.20;;;41.00;27.40;;;;;;4955392;28;20224;-70
2021/06/14 11:46:49;;;;;;;23.05;21.73;;;42.60;25.30;;;;;;4960784;28;20327;-69
2021/06/14 11:49:17;;;;;;;21.88;20.85;;;44.30;23.80;;;;;;4974300;28;20227;-69
2021/06/14 11:51:44;;;;;;;21.42;20.63;;;45.10;23.10;;;;;;4974668;28;20215;-69
2021/06/14 11:54:16;;;;;;;22.83;21.58;;;46.60;22.60;;;;;;4974483;28;20203;-68
2021/06/14 11:56:42;;;;;;;21.85;21.05;;;47.20;20.30;;;;;;4968338;28;20291;-68
2021/06/14 11:59:09;;;;;;;21.65;20.85;;;48.70;20.00;;;;;;4955096;28;20577;-70
2021/06/14 12:01:38;;;;;;;21.95;21.13;;;49.30;18.80;;;;;;4954961;28;20283;-69
2021/06/14 12:04:07;;;;;;;21.92;21.02;;;50.30;18.50;;;;;;4954826;28;20216;-69
2021/06/14 12:06:45;;;;;;;21.75;20.85;;;51.50;17.60;;;;;;4959112;28;20234;-69
2021/06/14 12:09:14;;;;;;;21.98;21.17;;;52.80;16.60;;;;;;4974053;28;20199;-70
2021/06/14 12:11:42;;;;;;;21.38;20.45;;;53.20;16.50;;;;;;4974372;28;20294;-70
2021/06/14 12:14:13;;;;;;;22.20;21.40;;;54.10;16.10;;;;;;4974314;28;20216;-70
2021/06/14 12:16:40;;;;;;;22.77;21.92;;;53.20;15.90;;;;;;4968705;28;20889;-70
2021/06/14 12:19:07;;;;;;;21.58;20.77;;;53.90;16.30;;;;;;4954614;28;20216;-70
2021/06/14 12:21:34;;;;;;;21.10;20.40;;;56.10;15.40;;;;;;4954570;28;20232;-70
2021/06/14 12:24:03;;;;;;;22.65;21.70;;;57.20;14.90;;;;;;4954584;28;20678;-70
2021/06/14 12:26:38;;;;;;;21.98;21.08;;;58.30;14.80;;;;;;4957578;28;20713;-71
2021/06/14 12:29:05;;;;;;;20.90;19.92;;;56.30;14.30;;;;;;4973660;28;20627;-71
2021/06/14 12:31:32;;;;;;;19.15;18.52;;;56.30;14.60;;;;;;4973616;28;20213;-69
2021/06/14 12:33:59;;;;;;;21.63;20.80;;;54.80;14.90;;;;;;4973899;28;20210;-70
2021/06/14 12:36:25;;;;;;;21.25;20.35;;;54.60;15.20;;;;;;4971123;28;20236;-71